sensor_id;sensor_type;location;lat;lon;timestamp;P1;durP1;ratioP1;P2;durP2;ratioP2
20150;SDS011;10236;49.638;6.830;2022-12-08T00:02:05;47.03;;;20.80;;
20150;SDS011;10236;49.638;6.830;2022-12-08T00:04:31;51.57;;;22.00;;
20150;SDS011;10236;49.638;6.830;2022-12-08T00:07:17;52.10;;;22.20;;
20150;SDS011;10236;49.638;6.830;2022-12-08T00:10:01;60.87;;;25.07;;
20150;SDS011;10236;49.638;6.830;2022-12-08T00:12:27;49.30;;;20.50;;
20150;SDS011;10236;49.638;6.830;2022-12-08T00:14:53;46.30;;;21.47;;
20150;SDS011;10236;49.638;6.830;2022-12-08T00:17:19;51.23;;;21.27;;
20150;SDS011;10236;49.638;6.830;2022-12-08T00:19:45;49.73;;;22.40;;
20150;SDS011;10236;49.638;6.830;2022-12-08T00:22:11;50.57;;;22.73;;
20150;SDS011;10236;49.638;6.830;2022-12-08T00:24:39;50.10;;;21.70;;
20150;SDS011;10236;49.638;6.830;2022-12-08T00:27:06;59.77;;;23.60;;
20150;SDS011;10236;49.638;6.830;2022-12-08T00:29:33;58.80;;;24.07;;
20150;SDS011;10236;49.638;6.830;2022-12-08T00:31:59;64.73;;;24.20;;
20150;SDS011;10236;49.638;6.830;2022-12-08T00:34:24;62.43;;;23.27;;
20150;SDS011;10236;49.638;6.830;2022-12-08T00:36:50;74.17;;;27.17;;
20150;SDS011;10236;49.638;6.830;2022-12-08T00:39:16;79.57;;;28.27;;
20150;SDS011;10236;49.638;6.830;2022-12-08T00:41:43;62.63;;;24.70;;
20150;SDS011;10236;49.638;6.830;2022-12-08T00:44:27;70.97;;;25.77;;
20150;SDS011;10236;49.638;6.830;2022-12-08T00:46:53;79.43;;;26.77;;
20150;SDS011;10236;49.638;6.830;2022-12-08T00:49:19;72.90;;;26.53;;
20150;SDS011;10236;49.638;6.830;2022-12-08T00:51:45;66.57;;;27.03;;
20150;SDS011;10236;49.638;6.830;2022-12-08T00:54:11;78.80;;;30.30;;
20150;SDS011;10236;49.638;6.830;2022-12-08T00:56:37;67.33;;;27.10;;
20150;SDS011;10236;49.638;6.830;2022-12-08T00:59:04;74.73;;;28.73;;
20150;SDS011;10236;49.638;6.830;2022-12-08T01:01:30;76.33;;;26.17;;
20150;SDS011;10236;49.638;6.830;2022-12-08T01:03:56;77.33;;;26.40;;
20150;SDS011;10236;49.638;6.830;2022-12-08T01:06:22;70.27;;;25.23;;
20150;SDS011;10236;49.638;6.830;2022-12-08T01:08:48;92.83;;;30.33;;
20150;SDS011;10236;49.638;6.830;2022-12-08T01:11:15;75.60;;;27.13;;
20150;SDS011;10236;49.638;6.830;2022-12-08T01:13:41;84.40;;;27.53;;
20150;SDS011;10236;49.638;6.830;2022-12-08T01:16:08;96.03;;;30.63;;
20150;SDS011;10236;49.638;6.830;2022-12-08T01:18:34;133.00;;;34.17;;
20150;SDS011;10236;49.638;6.830;2022-12-08T01:21:01;140.80;;;37.10;;
20150;SDS011;10236;49.638;6.830;2022-12-08T01:23:27;119.00;;;33.00;;
20150;SDS011;10236;49.638;6.830;2022-12-08T01:25:54;146.63;;;30.87;;
20150;SDS011;10236;49.638;6.830;2022-12-08T01:28:25;185.03;;;38.50;;
20150;SDS011;10236;49.638;6.830;2022-12-08T01:30:51;164.27;;;33.90;;
20150;SDS011;10236;49.638;6.830;2022-12-08T01:33:20;115.53;;;28.27;;
20150;SDS011;10236;49.638;6.830;2022-12-08T01:35:46;213.80;;;39.43;;
20150;SDS011;10236;49.638;6.830;2022-12-08T01:38:15;202.30;;;33.83;;
20150;SDS011;10236;49.638;6.830;2022-12-08T01:40:41;267.70;;;44.17;;
20150;SDS011;10236;49.638;6.830;2022-12-08T01:43:14;205.13;;;38.00;;
20150;SDS011;10236;49.638;6.830;2022-12-08T01:45:41;239.33;;;40.83;;
20150;SDS011;10236;49.638;6.830;2022-12-08T01:48:08;290.90;;;43.97;;
20150;SDS011;10236;49.638;6.830;2022-12-08T01:50:38;295.97;;;42.53;;
20150;SDS011;10236;49.638;6.830;2022-12-08T01:53:07;414.33;;;51.60;;
20150;SDS011;10236;49.638;6.830;2022-12-08T01:55:35;307.47;;;44.97;;
20150;SDS011;10236;49.638;6.830;2022-12-08T01:58:11;469.43;;;56.87;;
20150;SDS011;10236;49.638;6.830;2022-12-08T02:00:40;308.93;;;43.53;;
20150;SDS011;10236;49.638;6.830;2022-12-08T02:03:08;236.20;;;36.43;;
20150;SDS011;10236;49.638;6.830;2022-12-08T02:05:37;230.53;;;37.23;;
20150;SDS011;10236;49.638;6.830;2022-12-08T02:08:08;83.80;;;23.50;;
20150;SDS011;10236;49.638;6.830;2022-12-08T02:10:36;62.17;;;19.93;;
20150;SDS011;10236;49.638;6.830;2022-12-08T02:13:03;54.47;;;19.80;;
20150;SDS011;10236;49.638;6.830;2022-12-08T02:18:13;51.83;;;16.90;;
20150;SDS011;10236;49.638;6.830;2022-12-08T02:23:17;35.20;;;13.73;;
20150;SDS011;10236;49.638;6.830;2022-12-08T02:28:37;39.87;;;15.33;;
20150;SDS011;10236;49.638;6.830;2022-12-08T02:34:10;29.10;;;13.67;;
20150;SDS011;10236;49.638;6.830;2022-12-08T02:44:41;36.63;;;14.60;;
20150;SDS011;10236;49.638;6.830;2022-12-08T02:47:17;42.17;;;16.20;;
20150;SDS011;10236;49.638;6.830;2022-12-08T02:49:46;41.67;;;16.03;;
20150;SDS011;10236;49.638;6.830;2022-12-08T02:54:47;36.17;;;15.57;;
20150;SDS011;10236;49.638;6.830;2022-12-08T03:00:13;43.93;;;17.00;;
20150;SDS011;10236;49.638;6.830;2022-12-08T03:02:48;36.77;;;17.37;;
20150;SDS011;10236;49.638;6.830;2022-12-08T03:08:05;46.60;;;19.90;;
20150;SDS011;10236;49.638;6.830;2022-12-08T03:10:34;50.10;;;20.67;;
20150;SDS011;10236;49.638;6.830;2022-12-08T03:13:03;52.83;;;21.10;;
20150;SDS011;10236;49.638;6.830;2022-12-08T03:15:30;43.40;;;19.00;;
20150;SDS011;10236;49.638;6.830;2022-12-08T03:17:57;43.03;;;20.03;;
20150;SDS011;10236;49.638;6.830;2022-12-08T03:20:25;46.77;;;19.97;;
20150;SDS011;10236;49.638;6.830;2022-12-08T03:22:53;48.83;;;19.53;;
20150;SDS011;10236;49.638;6.830;2022-12-08T03:25:21;43.30;;;19.57;;
20150;SDS011;10236;49.638;6.830;2022-12-08T03:27:47;40.77;;;18.80;;
20150;SDS011;10236;49.638;6.830;2022-12-08T03:30:15;48.47;;;19.70;;
20150;SDS011;10236;49.638;6.830;2022-12-08T03:35:18;39.83;;;18.97;;
20150;SDS011;10236;49.638;6.830;2022-12-08T03:37:45;47.10;;;19.60;;
20150;SDS011;10236;49.638;6.830;2022-12-08T03:40:13;48.87;;;18.83;;
20150;SDS011;10236;49.638;6.830;2022-12-08T03:42:39;45.33;;;18.90;;
20150;SDS011;10236;49.638;6.830;2022-12-08T03:45:05;42.63;;;18.27;;
20150;SDS011;10236;49.638;6.830;2022-12-08T03:47:31;42.03;;;19.33;;
20150;SDS011;10236;49.638;6.830;2022-12-08T03:49:57;39.57;;;17.30;;
20150;SDS011;10236;49.638;6.830;2022-12-08T03:52:23;43.57;;;17.33;;
20150;SDS011;10236;49.638;6.830;2022-12-08T03:54:49;38.90;;;17.47;;
20150;SDS011;10236;49.638;6.830;2022-12-08T03:57:24;35.07;;;16.30;;
20150;SDS011;10236;49.638;6.830;2022-12-08T04:00:16;34.20;;;16.47;;
20150;SDS011;10236;49.638;6.830;2022-12-08T04:02:42;32.80;;;14.67;;
20150;SDS011;10236;49.638;6.830;2022-12-08T04:05:15;30.73;;;14.43;;
20150;SDS011;10236;49.638;6.830;2022-12-08T04:07:41;26.57;;;13.03;;
20150;SDS011;10236;49.638;6.830;2022-12-08T04:10:13;25.57;;;12.27;;
20150;SDS011;10236;49.638;6.830;2022-12-08T04:12:42;22.57;;;10.50;;
20150;SDS011;10236;49.638;6.830;2022-12-08T04:15:13;18.30;;;9.93;;
20150;SDS011;10236;49.638;6.830;2022-12-08T04:17:39;17.43;;;8.63;;
20150;SDS011;10236;49.638;6.830;2022-12-08T04:20:05;15.23;;;8.90;;
20150;SDS011;10236;49.638;6.830;2022-12-08T04:22:31;19.33;;;8.90;;
20150;SDS011;10236;49.638;6.830;2022-12-08T04:24:57;14.53;;;7.30;;
20150;SDS011;10236;49.638;6.830;2022-12-08T04:27:23;17.23;;;8.00;;
20150;SDS011;10236;49.638;6.830;2022-12-08T04:29:49;15.53;;;8.40;;
20150;SDS011;10236;49.638;6.830;2022-12-08T04:32:15;18.03;;;8.80;;
20150;SDS011;10236;49.638;6.830;2022-12-08T04:34:41;15.33;;;8.33;;
20150;SDS011;10236;49.638;6.830;2022-12-08T04:37:07;15.83;;;8.00;;
20150;SDS011;10236;49.638;6.830;2022-12-08T04:39:33;17.97;;;8.97;;
20150;SDS011;10236;49.638;6.830;2022-12-08T04:41:59;12.00;;;7.33;;
20150;SDS011;10236;49.638;6.830;2022-12-08T04:44:25;11.27;;;6.83;;
20150;SDS011;10236;49.638;6.830;2022-12-08T04:46:51;15.30;;;7.93;;
20150;SDS011;10236;49.638;6.830;2022-12-08T04:49:17;18.97;;;9.67;;
20150;SDS011;10236;49.638;6.830;2022-12-08T04:51:43;19.90;;;10.30;;
20150;SDS011;10236;49.638;6.830;2022-12-08T04:54:09;16.67;;;9.53;;
20150;SDS011;10236;49.638;6.830;2022-12-08T04:56:35;19.37;;;9.83;;
20150;SDS011;10236;49.638;6.830;2022-12-08T04:59:01;20.37;;;10.27;;
20150;SDS011;10236;49.638;6.830;2022-12-08T05:01:27;20.70;;;12.13;;
20150;SDS011;10236;49.638;6.830;2022-12-08T05:03:53;29.43;;;14.57;;
20150;SDS011;10236;49.638;6.830;2022-12-08T05:06:19;20.93;;;11.67;;
20150;SDS011;10236;49.638;6.830;2022-12-08T05:08:45;23.43;;;11.03;;
20150;SDS011;10236;49.638;6.830;2022-12-08T05:11:11;23.83;;;10.73;;
20150;SDS011;10236;49.638;6.830;2022-12-08T05:13:37;23.87;;;12.07;;
20150;SDS011;10236;49.638;6.830;2022-12-08T05:16:05;34.73;;;22.40;;
20150;SDS011;10236;49.638;6.830;2022-12-08T05:18:43;22.83;;;11.97;;
20150;SDS011;10236;49.638;6.830;2022-12-08T05:21:09;22.43;;;12.77;;
20150;SDS011;10236;49.638;6.830;2022-12-08T05:23:35;22.53;;;13.60;;
20150;SDS011;10236;49.638;6.830;2022-12-08T05:26:01;27.37;;;17.10;;
20150;SDS011;10236;49.638;6.830;2022-12-08T05:28:27;18.13;;;9.77;;
20150;SDS011;10236;49.638;6.830;2022-12-08T05:30:53;21.97;;;10.37;;
20150;SDS011;10236;49.638;6.830;2022-12-08T05:33:19;22.97;;;10.13;;
20150;SDS011;10236;49.638;6.830;2022-12-08T05:35:45;17.63;;;9.30;;
20150;SDS011;10236;49.638;6.830;2022-12-08T05:38:11;26.57;;;18.03;;
20150;SDS011;10236;49.638;6.830;2022-12-08T05:40:38;32.73;;;17.50;;
20150;SDS011;10236;49.638;6.830;2022-12-08T05:43:04;35.37;;;20.90;;
20150;SDS011;10236;49.638;6.830;2022-12-08T05:45:30;28.43;;;15.10;;
20150;SDS011;10236;49.638;6.830;2022-12-08T05:47:56;28.70;;;15.47;;
20150;SDS011;10236;49.638;6.830;2022-12-08T05:50:22;24.13;;;13.30;;
20150;SDS011;10236;49.638;6.830;2022-12-08T05:52:48;32.53;;;15.93;;
20150;SDS011;10236;49.638;6.830;2022-12-08T05:55:17;21.17;;;12.37;;
20150;SDS011;10236;49.638;6.830;2022-12-08T06:00:38;29.53;;;14.30;;
20150;SDS011;10236;49.638;6.830;2022-12-08T06:08:20;33.80;;;17.30;;
20150;SDS011;10236;49.638;6.830;2022-12-08T06:10:46;29.97;;;14.07;;
20150;SDS011;10236;49.638;6.830;2022-12-08T06:13:13;26.83;;;14.93;;
20150;SDS011;10236;49.638;6.830;2022-12-08T06:15:39;20.77;;;11.27;;
20150;SDS011;10236;49.638;6.830;2022-12-08T06:18:05;24.87;;;13.30;;
20150;SDS011;10236;49.638;6.830;2022-12-08T06:20:32;23.53;;;12.63;;
20150;SDS011;10236;49.638;6.830;2022-12-08T06:22:58;23.33;;;12.13;;
20150;SDS011;10236;49.638;6.830;2022-12-08T06:25:24;27.60;;;12.53;;
20150;SDS011;10236;49.638;6.830;2022-12-08T06:27:50;18.83;;;10.97;;
20150;SDS011;10236;49.638;6.830;2022-12-08T06:30:16;23.50;;;11.43;;
20150;SDS011;10236;49.638;6.830;2022-12-08T06:32:43;23.60;;;12.53;;
20150;SDS011;10236;49.638;6.830;2022-12-08T06:35:09;29.43;;;14.40;;
20150;SDS011;10236;49.638;6.830;2022-12-08T06:37:35;27.23;;;13.93;;
20150;SDS011;10236;49.638;6.830;2022-12-08T06:40:01;29.50;;;15.70;;
20150;SDS011;10236;49.638;6.830;2022-12-08T06:42:27;25.77;;;14.00;;
20150;SDS011;10236;49.638;6.830;2022-12-08T06:45:08;29.97;;;17.63;;
20150;SDS011;10236;49.638;6.830;2022-12-08T06:47:34;41.73;;;21.17;;
20150;SDS011;10236;49.638;6.830;2022-12-08T06:50:00;31.97;;;17.67;;
20150;SDS011;10236;49.638;6.830;2022-12-08T06:58:01;33.57;;;19.57;;
20150;SDS011;10236;49.638;6.830;2022-12-08T07:03:26;35.83;;;18.60;;
20150;SDS011;10236;49.638;6.830;2022-12-08T07:05:54;33.80;;;17.83;;
20150;SDS011;10236;49.638;6.830;2022-12-08T07:08:48;28.47;;;15.70;;
20150;SDS011;10236;49.638;6.830;2022-12-08T07:11:20;27.60;;;12.43;;
20150;SDS011;10236;49.638;6.830;2022-12-08T07:13:46;23.90;;;13.63;;
20150;SDS011;10236;49.638;6.830;2022-12-08T07:16:35;23.20;;;13.10;;
20150;SDS011;10236;49.638;6.830;2022-12-08T07:19:09;32.43;;;14.27;;
20150;SDS011;10236;49.638;6.830;2022-12-08T07:21:52;26.73;;;15.20;;
20150;SDS011;10236;49.638;6.830;2022-12-08T07:24:20;29.07;;;16.43;;
20150;SDS011;10236;49.638;6.830;2022-12-08T07:26:46;34.00;;;17.27;;
20150;SDS011;10236;49.638;6.830;2022-12-08T07:29:12;30.33;;;14.23;;
20150;SDS011;10236;49.638;6.830;2022-12-08T07:31:38;22.30;;;11.83;;
20150;SDS011;10236;49.638;6.830;2022-12-08T07:34:04;21.90;;;12.53;;
20150;SDS011;10236;49.638;6.830;2022-12-08T07:36:30;26.97;;;13.53;;
20150;SDS011;10236;49.638;6.830;2022-12-08T07:39:14;26.57;;;13.47;;
20150;SDS011;10236;49.638;6.830;2022-12-08T07:42:01;27.07;;;14.33;;
20150;SDS011;10236;49.638;6.830;2022-12-08T07:44:30;28.87;;;14.90;;
20150;SDS011;10236;49.638;6.830;2022-12-08T07:46:56;27.73;;;15.47;;
20150;SDS011;10236;49.638;6.830;2022-12-08T07:49:22;28.70;;;16.83;;
20150;SDS011;10236;49.638;6.830;2022-12-08T07:51:48;37.57;;;17.00;;
20150;SDS011;10236;49.638;6.830;2022-12-08T07:54:14;31.20;;;17.40;;
20150;SDS011;10236;49.638;6.830;2022-12-08T07:56:40;33.20;;;16.93;;
20150;SDS011;10236;49.638;6.830;2022-12-08T07:59:06;32.57;;;17.87;;
20150;SDS011;10236;49.638;6.830;2022-12-08T08:01:32;30.37;;;16.70;;
20150;SDS011;10236;49.638;6.830;2022-12-08T08:03:59;35.77;;;18.40;;
20150;SDS011;10236;49.638;6.830;2022-12-08T08:06:26;40.37;;;19.23;;
20150;SDS011;10236;49.638;6.830;2022-12-08T08:08:52;33.07;;;17.97;;
20150;SDS011;10236;49.638;6.830;2022-12-08T08:11:18;39.63;;;20.30;;
20150;SDS011;10236;49.638;6.830;2022-12-08T08:13:44;38.13;;;18.90;;
20150;SDS011;10236;49.638;6.830;2022-12-08T08:16:10;39.40;;;21.40;;
20150;SDS011;10236;49.638;6.830;2022-12-08T08:18:39;33.60;;;20.23;;
20150;SDS011;10236;49.638;6.830;2022-12-08T08:21:05;32.47;;;18.87;;
20150;SDS011;10236;49.638;6.830;2022-12-08T08:23:31;32.17;;;19.03;;
20150;SDS011;10236;49.638;6.830;2022-12-08T08:26:00;37.03;;;17.53;;
20150;SDS011;10236;49.638;6.830;2022-12-08T08:28:27;31.73;;;17.37;;
20150;SDS011;10236;49.638;6.830;2022-12-08T08:30:53;31.13;;;17.57;;
20150;SDS011;10236;49.638;6.830;2022-12-08T08:33:19;32.03;;;17.47;;
20150;SDS011;10236;49.638;6.830;2022-12-08T08:35:45;30.60;;;17.63;;
20150;SDS011;10236;49.638;6.830;2022-12-08T08:38:11;32.27;;;17.63;;
20150;SDS011;10236;49.638;6.830;2022-12-08T08:40:37;29.50;;;16.53;;
20150;SDS011;10236;49.638;6.830;2022-12-08T08:43:03;30.20;;;18.40;;
20150;SDS011;10236;49.638;6.830;2022-12-08T08:45:30;35.00;;;17.60;;
20150;SDS011;10236;49.638;6.830;2022-12-08T08:47:56;26.97;;;16.87;;
20150;SDS011;10236;49.638;6.830;2022-12-08T08:50:22;27.67;;;17.03;;
20150;SDS011;10236;49.638;6.830;2022-12-08T08:52:48;30.40;;;18.83;;
20150;SDS011;10236;49.638;6.830;2022-12-08T08:55:14;33.03;;;17.33;;
20150;SDS011;10236;49.638;6.830;2022-12-08T08:57:40;26.77;;;16.17;;
20150;SDS011;10236;49.638;6.830;2022-12-08T09:00:06;29.97;;;19.57;;
20150;SDS011;10236;49.638;6.830;2022-12-08T09:02:34;37.53;;;20.87;;
20150;SDS011;10236;49.638;6.830;2022-12-08T09:05:00;35.27;;;19.07;;
20150;SDS011;10236;49.638;6.830;2022-12-08T09:07:26;32.80;;;20.20;;
20150;SDS011;10236;49.638;6.830;2022-12-08T09:09:52;36.23;;;22.07;;
20150;SDS011;10236;49.638;6.830;2022-12-08T09:12:18;26.87;;;16.37;;
20150;SDS011;10236;49.638;6.830;2022-12-08T09:14:44;27.13;;;15.97;;
20150;SDS011;10236;49.638;6.830;2022-12-08T09:17:10;32.57;;;17.40;;
20150;SDS011;10236;49.638;6.830;2022-12-08T09:19:36;29.93;;;17.67;;
20150;SDS011;10236;49.638;6.830;2022-12-08T09:22:02;26.23;;;14.67;;
20150;SDS011;10236;49.638;6.830;2022-12-08T09:24:28;38.97;;;24.80;;
20150;SDS011;10236;49.638;6.830;2022-12-08T09:26:54;37.37;;;18.40;;
20150;SDS011;10236;49.638;6.830;2022-12-08T09:29:20;39.67;;;26.17;;
20150;SDS011;10236;49.638;6.830;2022-12-08T09:31:45;28.03;;;15.53;;
20150;SDS011;10236;49.638;6.830;2022-12-08T09:34:11;31.47;;;16.23;;
20150;SDS011;10236;49.638;6.830;2022-12-08T09:36:38;28.37;;;16.27;;
20150;SDS011;10236;49.638;6.830;2022-12-08T09:39:04;24.43;;;15.20;;
20150;SDS011;10236;49.638;6.830;2022-12-08T09:41:34;25.70;;;16.33;;
20150;SDS011;10236;49.638;6.830;2022-12-08T09:46:45;32.77;;;18.13;;
20150;SDS011;10236;49.638;6.830;2022-12-08T09:49:13;24.20;;;14.43;;
20150;SDS011;10236;49.638;6.830;2022-12-08T09:51:40;29.20;;;15.57;;
20150;SDS011;10236;49.638;6.830;2022-12-08T09:54:09;22.50;;;14.07;;
20150;SDS011;10236;49.638;6.830;2022-12-08T09:56:37;23.33;;;13.53;;
20150;SDS011;10236;49.638;6.830;2022-12-08T09:59:19;18.87;;;13.20;;
20150;SDS011;10236;49.638;6.830;2022-12-08T10:01:46;24.10;;;13.37;;
20150;SDS011;10236;49.638;6.830;2022-12-08T10:04:26;27.87;;;15.50;;
20150;SDS011;10236;49.638;6.830;2022-12-08T10:06:56;28.40;;;13.87;;
20150;SDS011;10236;49.638;6.830;2022-12-08T10:11:52;238.60;;;116.07;;
20150;SDS011;10236;49.638;6.830;2022-12-08T10:17:04;93.47;;;46.73;;
20150;SDS011;10236;49.638;6.830;2022-12-08T10:19:37;94.27;;;51.10;;
20150;SDS011;10236;49.638;6.830;2022-12-08T10:22:11;64.70;;;38.97;;
20150;SDS011;10236;49.638;6.830;2022-12-08T10:24:40;24.80;;;13.27;;
20150;SDS011;10236;49.638;6.830;2022-12-08T10:27:09;61.43;;;38.63;;
20150;SDS011;10236;49.638;6.830;2022-12-08T10:29:38;97.07;;;61.57;;
20150;SDS011;10236;49.638;6.830;2022-12-08T10:32:08;107.57;;;67.53;;
20150;SDS011;10236;49.638;6.830;2022-12-08T10:34:37;17.10;;;11.00;;
20150;SDS011;10236;49.638;6.830;2022-12-08T10:37:22;15.63;;;9.47;;
20150;SDS011;10236;49.638;6.830;2022-12-08T10:39:48;13.77;;;8.43;;
20150;SDS011;10236;49.638;6.830;2022-12-08T10:42:23;18.30;;;10.40;;
20150;SDS011;10236;49.638;6.830;2022-12-08T10:44:54;41.40;;;28.17;;
20150;SDS011;10236;49.638;6.830;2022-12-08T10:47:23;23.97;;;17.70;;
20150;SDS011;10236;49.638;6.830;2022-12-08T10:52:38;17.30;;;9.23;;
20150;SDS011;10236;49.638;6.830;2022-12-08T10:55:17;19.83;;;11.70;;
20150;SDS011;10236;49.638;6.830;2022-12-08T10:57:43;17.00;;;10.57;;
20150;SDS011;10236;49.638;6.830;2022-12-08T11:00:13;22.90;;;12.70;;
20150;SDS011;10236;49.638;6.830;2022-12-08T11:05:35;19.97;;;12.53;;
20150;SDS011;10236;49.638;6.830;2022-12-08T11:08:02;18.50;;;10.97;;
20150;SDS011;10236;49.638;6.830;2022-12-08T11:10:31;20.00;;;11.97;;
20150;SDS011;10236;49.638;6.830;2022-12-08T11:12:59;22.83;;;12.67;;
20150;SDS011;10236;49.638;6.830;2022-12-08T11:15:25;18.30;;;11.77;;
20150;SDS011;10236;49.638;6.830;2022-12-08T11:18:01;21.23;;;12.03;;
20150;SDS011;10236;49.638;6.830;2022-12-08T11:20:38;20.97;;;12.53;;
20150;SDS011;10236;49.638;6.830;2022-12-08T11:23:16;24.03;;;12.80;;
20150;SDS011;10236;49.638;6.830;2022-12-08T11:25:45;26.87;;;13.20;;
20150;SDS011;10236;49.638;6.830;2022-12-08T11:28:14;24.40;;;13.60;;
20150;SDS011;10236;49.638;6.830;2022-12-08T11:30:42;20.17;;;12.77;;
20150;SDS011;10236;49.638;6.830;2022-12-08T11:33:14;22.10;;;14.73;;
20150;SDS011;10236;49.638;6.830;2022-12-08T11:35:41;26.03;;;13.03;;
20150;SDS011;10236;49.638;6.830;2022-12-08T11:38:18;19.03;;;10.73;;
20150;SDS011;10236;49.638;6.830;2022-12-08T11:40:46;21.40;;;12.53;;
20150;SDS011;10236;49.638;6.830;2022-12-08T11:43:18;26.67;;;16.47;;
20150;SDS011;10236;49.638;6.830;2022-12-08T11:45:48;26.00;;;17.70;;
20150;SDS011;10236;49.638;6.830;2022-12-08T11:48:18;20.87;;;12.53;;
20150;SDS011;10236;49.638;6.830;2022-12-08T11:50:57;16.83;;;11.10;;
20150;SDS011;10236;49.638;6.830;2022-12-08T11:53:26;16.33;;;9.67;;
20150;SDS011;10236;49.638;6.830;2022-12-08T11:55:56;21.20;;;12.23;;
20150;SDS011;10236;49.638;6.830;2022-12-08T11:58:30;15.53;;;10.63;;
20150;SDS011;10236;49.638;6.830;2022-12-08T12:00:56;19.50;;;10.93;;
20150;SDS011;10236;49.638;6.830;2022-12-08T12:03:28;16.37;;;11.60;;
20150;SDS011;10236;49.638;6.830;2022-12-08T12:19:13;14.37;;;9.70;;
20150;SDS011;10236;49.638;6.830;2022-12-08T12:21:43;16.27;;;10.70;;
20150;SDS011;10236;49.638;6.830;2022-12-08T12:24:17;19.13;;;11.13;;
20150;SDS011;10236;49.638;6.830;2022-12-08T12:29:22;22.53;;;11.53;;
20150;SDS011;10236;49.638;6.830;2022-12-08T12:31:51;21.03;;;10.27;;
20150;SDS011;10236;49.638;6.830;2022-12-08T12:34:22;18.73;;;12.47;;
20150;SDS011;10236;49.638;6.830;2022-12-08T12:39:16;16.83;;;10.80;;
20150;SDS011;10236;49.638;6.830;2022-12-08T12:41:50;18.03;;;11.90;;
20150;SDS011;10236;49.638;6.830;2022-12-08T12:49:46;21.30;;;11.30;;
20150;SDS011;10236;49.638;6.830;2022-12-08T12:52:01;17.00;;;11.43;;
20150;SDS011;10236;49.638;6.830;2022-12-08T12:54:27;13.20;;;8.20;;
20150;SDS011;10236;49.638;6.830;2022-12-08T12:59:46;15.40;;;9.63;;
20150;SDS011;10236;49.638;6.830;2022-12-08T13:02:22;17.93;;;11.10;;
20150;SDS011;10236;49.638;6.830;2022-12-08T13:05:00;15.70;;;10.60;;
20150;SDS011;10236;49.638;6.830;2022-12-08T13:07:31;16.70;;;9.70;;
20150;SDS011;10236;49.638;6.830;2022-12-08T13:09:59;14.67;;;9.80;;
20150;SDS011;10236;49.638;6.830;2022-12-08T13:12:26;16.00;;;9.73;;
20150;SDS011;10236;49.638;6.830;2022-12-08T13:14:53;12.77;;;8.57;;
20150;SDS011;10236;49.638;6.830;2022-12-08T13:17:23;15.33;;;7.97;;
20150;SDS011;10236;49.638;6.830;2022-12-08T13:19:51;17.10;;;8.97;;
20150;SDS011;10236;49.638;6.830;2022-12-08T13:23:00;14.90;;;8.33;;
20150;SDS011;10236;49.638;6.830;2022-12-08T13:27:53;14.13;;;7.87;;
20150;SDS011;10236;49.638;6.830;2022-12-08T13:33:04;14.90;;;7.37;;
20150;SDS011;10236;49.638;6.830;2022-12-08T13:35:35;16.10;;;8.10;;
20150;SDS011;10236;49.638;6.830;2022-12-08T13:38:04;13.20;;;8.50;;
20150;SDS011;10236;49.638;6.830;2022-12-08T13:40:31;10.93;;;7.80;;
20150;SDS011;10236;49.638;6.830;2022-12-08T13:43:05;13.50;;;8.87;;
20150;SDS011;10236;49.638;6.830;2022-12-08T13:45:34;18.37;;;10.73;;
20150;SDS011;10236;49.638;6.830;2022-12-08T13:53:20;33.73;;;14.77;;
20150;SDS011;10236;49.638;6.830;2022-12-08T13:55:51;29.20;;;15.03;;
20150;SDS011;10236;49.638;6.830;2022-12-08T13:58:23;20.37;;;10.93;;
20150;SDS011;10236;49.638;6.830;2022-12-08T14:01:00;20.67;;;10.70;;
20150;SDS011;10236;49.638;6.830;2022-12-08T14:03:27;18.63;;;10.33;;
20150;SDS011;10236;49.638;6.830;2022-12-08T14:05:53;13.13;;;7.20;;
20150;SDS011;10236;49.638;6.830;2022-12-08T14:08:40;9.20;;;4.97;;
20150;SDS011;10236;49.638;6.830;2022-12-08T14:11:08;9.33;;;5.77;;
20150;SDS011;10236;49.638;6.830;2022-12-08T14:13:57;11.43;;;5.80;;
20150;SDS011;10236;49.638;6.830;2022-12-08T14:16:35;16.07;;;6.03;;
20150;SDS011;10236;49.638;6.830;2022-12-08T14:19:03;10.00;;;5.93;;
20150;SDS011;10236;49.638;6.830;2022-12-08T14:21:29;70.57;;;36.20;;
20150;SDS011;10236;49.638;6.830;2022-12-08T14:23:59;38.97;;;20.07;;
20150;SDS011;10236;49.638;6.830;2022-12-08T14:26:25;19.17;;;11.80;;
20150;SDS011;10236;49.638;6.830;2022-12-08T14:28:51;15.30;;;9.17;;
20150;SDS011;10236;49.638;6.830;2022-12-08T14:31:17;33.03;;;20.83;;
20150;SDS011;10236;49.638;6.830;2022-12-08T14:33:43;49.00;;;26.63;;
20150;SDS011;10236;49.638;6.830;2022-12-08T14:36:09;48.00;;;23.37;;
20150;SDS011;10236;49.638;6.830;2022-12-08T14:38:36;11.53;;;6.50;;
20150;SDS011;10236;49.638;6.830;2022-12-08T14:41:06;66.23;;;30.83;;
20150;SDS011;10236;49.638;6.830;2022-12-08T14:43:32;80.50;;;37.70;;
20150;SDS011;10236;49.638;6.830;2022-12-08T14:46:00;67.87;;;30.63;;
20150;SDS011;10236;49.638;6.830;2022-12-08T14:51:00;14.13;;;7.93;;
20150;SDS011;10236;49.638;6.830;2022-12-08T14:53:41;45.97;;;28.10;;
20150;SDS011;10236;49.638;6.830;2022-12-08T14:58:36;65.57;;;31.20;;
20150;SDS011;10236;49.638;6.830;2022-12-08T15:01:02;85.07;;;43.37;;
20150;SDS011;10236;49.638;6.830;2022-12-08T15:03:30;60.87;;;34.43;;
20150;SDS011;10236;49.638;6.830;2022-12-08T15:05:58;37.97;;;23.83;;
20150;SDS011;10236;49.638;6.830;2022-12-08T15:08:25;47.10;;;27.23;;
20150;SDS011;10236;49.638;6.830;2022-12-08T15:13:41;18.13;;;11.80;;
20150;SDS011;10236;49.638;6.830;2022-12-08T15:16:24;12.17;;;7.60;;
20150;SDS011;10236;49.638;6.830;2022-12-08T15:19:01;14.83;;;7.37;;
20150;SDS011;10236;49.638;6.830;2022-12-08T15:21:28;11.93;;;7.10;;
20150;SDS011;10236;49.638;6.830;2022-12-08T15:23:56;19.30;;;10.77;;
20150;SDS011;10236;49.638;6.830;2022-12-08T15:26:23;16.07;;;8.23;;
20150;SDS011;10236;49.638;6.830;2022-12-08T15:28:49;57.20;;;34.10;;
20150;SDS011;10236;49.638;6.830;2022-12-08T15:31:16;49.50;;;27.37;;
20150;SDS011;10236;49.638;6.830;2022-12-08T15:33:42;47.73;;;26.17;;
20150;SDS011;10236;49.638;6.830;2022-12-08T15:36:08;25.23;;;14.13;;
20150;SDS011;10236;49.638;6.830;2022-12-08T15:38:34;69.27;;;39.83;;
20150;SDS011;10236;49.638;6.830;2022-12-08T15:41:00;27.70;;;17.10;;
20150;SDS011;10236;49.638;6.830;2022-12-08T15:43:26;25.67;;;13.97;;
20150;SDS011;10236;49.638;6.830;2022-12-08T15:45:52;20.67;;;12.13;;
20150;SDS011;10236;49.638;6.830;2022-12-08T15:48:23;26.57;;;13.00;;
20150;SDS011;10236;49.638;6.830;2022-12-08T15:50:50;13.07;;;6.93;;
20150;SDS011;10236;49.638;6.830;2022-12-08T15:53:16;8.57;;;6.23;;
20150;SDS011;10236;49.638;6.830;2022-12-08T15:55:42;10.97;;;6.13;;
20150;SDS011;10236;49.638;6.830;2022-12-08T15:58:22;9.43;;;5.53;;
20150;SDS011;10236;49.638;6.830;2022-12-08T16:00:48;10.07;;;4.70;;
20150;SDS011;10236;49.638;6.830;2022-12-08T16:03:19;9.40;;;5.47;;
20150;SDS011;10236;49.638;6.830;2022-12-08T16:05:45;8.57;;;5.30;;
20150;SDS011;10236;49.638;6.830;2022-12-08T16:08:14;6.10;;;4.70;;
20150;SDS011;10236;49.638;6.830;2022-12-08T16:10:41;8.43;;;5.27;;
20150;SDS011;10236;49.638;6.830;2022-12-08T16:13:12;10.00;;;6.63;;
20150;SDS011;10236;49.638;6.830;2022-12-08T16:15:58;10.30;;;7.10;;
20150;SDS011;10236;49.638;6.830;2022-12-08T16:18:25;23.60;;;15.43;;